createdAt,value
2023-03-29T00:03:18.701Z,5.46
2023-03-29T00:08:22.749Z,5.43
2023-03-29T00:13:25.377Z,5.41
2023-03-29T00:18:27.928Z,5.35
2023-03-29T00:23:32.283Z,5.32
2023-03-29T00:28:34.995Z,5.33
2023-03-29T00:33:37.581Z,5.32
2023-03-29T00:38:41.576Z,5.28
2023-03-29T00:43:55.375Z,5.25
2023-03-29T00:49:02.320Z,5.18
2023-03-29T00:54:09.243Z,5.13
2023-03-29T00:59:16.141Z,5.10
2023-03-29T01:04:24.639Z,5.04
2023-03-29T01:09:32.308Z,5.01
2023-03-29T01:14:39.345Z,5.01
2023-03-29T01:19:47.000Z,5.07
2023-03-29T01:25:00.979Z,5.12
2023-03-29T01:30:12.609Z,5.13
2023-03-29T01:35:21.021Z,5.12
2023-03-29T01:40:24.035Z,5.09
2023-03-29T01:45:35.613Z,5.11
2023-03-29T01:50:43.104Z,5.15
2023-03-29T01:55:51.222Z,5.18
2023-03-29T02:00:56.107Z,5.22
2023-03-29T02:06:00.262Z,5.27
2023-03-29T02:11:03.006Z,5.29
2023-03-29T02:16:12.465Z,5.29
2023-03-29T02:21:21.806Z,5.27
2023-03-29T02:26:24.621Z,5.30
2023-03-29T02:31:33.184Z,5.29
2023-03-29T02:36:41.635Z,5.29
2023-03-29T02:41:47.346Z,5.29
2023-03-29T02:46:57.328Z,5.30
2023-03-29T02:52:07.322Z,5.27
2023-03-29T02:57:11.191Z,5.29
2023-03-29T03:02:17.433Z,5.26
2023-03-29T03:07:20.264Z,5.27
2023-03-29T03:12:22.832Z,5.34
2023-03-29T03:17:26.752Z,5.38
2023-03-29T03:22:29.252Z,5.41
2023-03-29T03:27:33.904Z,5.39
2023-03-29T03:32:37.869Z,5.39
2023-03-29T03:37:40.972Z,5.39
2023-03-29T03:42:43.941Z,5.39
2023-03-29T03:47:47.978Z,5.37
2023-03-29T03:52:50.628Z,5.36
2023-03-29T03:57:53.259Z,5.34
2023-03-29T04:02:57.270Z,5.31
2023-03-29T04:08:00.109Z,5.29
2023-03-29T04:13:03.045Z,5.26
2023-03-29T04:18:07.406Z,5.24
2023-03-29T04:23:10.208Z,5.28
2023-03-29T04:28:13.590Z,5.28
2023-03-29T04:33:17.501Z,5.27
2023-03-29T04:38:23.116Z,5.24
2023-03-29T04:43:25.737Z,5.21
2023-03-29T04:48:31.534Z,5.21
2023-03-29T04:53:34.109Z,5.17
2023-03-29T04:58:36.719Z,5.16
2023-03-29T05:03:40.565Z,5.14
2023-03-29T05:08:43.303Z,5.12
2023-03-29T05:13:45.965Z,5.11
2023-03-29T05:18:49.940Z,5.14
2023-03-29T05:23:53.237Z,5.15
2023-03-29T05:28:55.834Z,5.13
2023-03-29T05:33:59.662Z,5.14
2023-03-29T05:39:02.162Z,5.13
2023-03-29T05:44:04.749Z,5.15
2023-03-29T05:49:08.605Z,5.18
2023-03-29T05:54:11.510Z,5.22
2023-03-29T05:59:14.842Z,5.27
2023-03-29T06:04:18.915Z,5.31
2023-03-29T06:09:21.519Z,5.35
2023-03-29T06:14:24.857Z,5.38
2023-03-29T06:19:29.197Z,5.43
2023-03-29T06:24:32.210Z,5.49
2023-03-29T06:29:35.105Z,5.59
2023-03-29T06:34:39.486Z,5.69
2023-03-29T06:39:42.018Z,5.81
2023-03-29T06:44:44.590Z,5.94
2023-03-29T06:49:48.403Z,6.04
2023-03-29T06:54:51.667Z,6.16
2023-03-29T06:59:54.214Z,6.25
2023-03-29T07:04:58.040Z,6.33
2023-03-29T07:10:01.729Z,6.45
2023-03-29T07:15:04.733Z,6.50
2023-03-29T07:20:13.833Z,6.56
2023-03-29T07:25:17.150Z,6.62
2023-03-29T07:30:22.747Z,6.64
2023-03-29T07:35:27.498Z,6.70
2023-03-29T07:40:31.150Z,6.83
2023-03-29T07:45:33.910Z,6.98
2023-03-29T07:50:37.864Z,7.13
2023-03-29T07:55:47.231Z,7.29
2023-03-29T08:00:50.639Z,7.41
2023-03-29T08:05:54.841Z,7.43
2023-03-29T08:10:57.423Z,7.52
2023-03-29T08:16:00.199Z,7.73
2023-03-29T08:21:04.760Z,7.92
2023-03-29T08:26:08.592Z,8.09
2023-03-29T08:31:12.741Z,8.28
2023-03-29T08:36:16.705Z,8.46
2023-03-29T08:41:32.866Z,8.62
2023-03-29T08:46:42.157Z,8.84
2023-03-29T08:51:49.056Z,9.05
2023-03-29T08:56:53.157Z,9.23
2023-03-29T09:01:59.213Z,9.41
2023-03-29T09:07:04.919Z,9.52
2023-03-29T09:12:20.789Z,9.56
2023-03-29T09:17:35.707Z,9.73
2023-03-29T09:22:47.016Z,9.97
2023-03-29T09:27:54.899Z,10.08
2023-03-29T09:33:01.769Z,10.17
2023-03-29T09:38:10.358Z,10.43
2023-03-29T09:43:17.620Z,10.81
2023-03-29T09:48:21.598Z,11.07
2023-03-29T09:53:26.412Z,11.20
2023-03-29T09:58:31.570Z,11.21
2023-03-29T10:03:34.924Z,11.18
2023-03-29T10:08:41.696Z,11.22
2023-03-29T10:13:47.224Z,11.39
2023-03-29T10:18:51.093Z,11.50
2023-03-29T10:23:59.610Z,11.52
2023-03-29T10:29:06.106Z,11.57
2023-03-29T10:34:09.558Z,11.65
2023-03-29T10:39:16.250Z,11.77
2023-03-29T10:44:31.572Z,11.94
2023-03-29T10:49:42.009Z,11.93
2023-03-29T10:54:47.261Z,11.84
2023-03-29T10:59:58.864Z,11.76
2023-03-29T11:05:15.695Z,11.79
2023-03-29T11:10:42.590Z,11.87
2023-03-29T11:15:59.128Z,11.71
2023-03-29T11:21:10.722Z,11.61
2023-03-29T11:26:22.730Z,11.70
2023-03-29T11:31:37.206Z,11.77
2023-03-29T11:36:53.698Z,11.71
2023-03-29T11:42:06.726Z,11.75
2023-03-29T11:47:14.400Z,11.78
2023-03-29T11:52:20.763Z,11.96
2023-03-29T11:57:29.957Z,12.08
2023-03-29T12:02:37.338Z,12.11
2023-03-29T12:07:46.749Z,12.19
2023-03-29T12:12:58.451Z,12.21
2023-03-29T12:18:08.246Z,12.19
2023-03-29T12:23:15.743Z,12.18
2023-03-29T12:28:36.692Z,12.14
2023-03-29T12:34:07.599Z,12.15
2023-03-29T12:39:15.292Z,12.16
2023-03-29T12:44:23.414Z,12.36
2023-03-29T12:49:30.417Z,12.62
2023-03-29T12:54:34.255Z,12.74
2023-03-29T12:59:45.180Z,12.76
2023-03-29T13:04:52.130Z,12.86
2023-03-29T13:09:56.545Z,12.96
2023-03-29T13:15:02.670Z,12.88
2023-03-29T13:20:21.160Z,12.86
2023-03-29T13:25:50.493Z,12.87
2023-03-29T13:31:00.418Z,12.91
2023-03-29T13:36:08.721Z,12.80
2023-03-29T13:41:28.698Z,12.60
2023-03-29T13:46:41.310Z,12.43
2023-03-29T13:52:01.530Z,12.38
2023-03-29T13:57:10.843Z,12.36
2023-03-29T14:02:22.840Z,12.26
2023-03-29T14:07:27.009Z,12.18
2023-03-29T14:12:35.391Z,12.14
2023-03-29T14:17:40.054Z,12.13
2023-03-29T14:22:43.894Z,12.12
2023-03-29T14:27:46.678Z,12.11
2023-03-29T14:32:52.332Z,12.06
2023-03-29T14:37:55.042Z,12.02
2023-03-29T14:42:57.604Z,11.98
2023-03-29T14:48:01.785Z,11.99
2023-03-29T14:53:06.110Z,11.90
2023-03-29T14:58:20.473Z,11.85
2023-03-29T15:03:26.420Z,11.86
2023-03-29T15:08:33.554Z,11.81
2023-03-29T15:13:36.385Z,11.74
2023-03-29T15:18:42.862Z,11.75
2023-03-29T15:23:51.604Z,11.79
2023-03-29T15:28:57.382Z,11.80
2023-03-29T15:34:08.503Z,11.81
2023-03-29T15:39:14.374Z,11.85
2023-03-29T15:44:18.684Z,11.94
2023-03-29T15:49:22.574Z,11.94
2023-03-29T15:54:25.304Z,11.89
2023-03-29T15:59:28.210Z,11.81
2023-03-29T16:04:32.115Z,11.78
2023-03-29T16:09:34.812Z,11.77
2023-03-29T16:14:37.578Z,11.72
2023-03-29T16:19:41.395Z,11.71
2023-03-29T16:24:43.932Z,11.71
2023-03-29T16:29:46.456Z,11.71
2023-03-29T16:34:50.294Z,11.77
2023-03-29T16:39:52.813Z,11.82
2023-03-29T16:44:56.508Z,11.84
2023-03-29T16:50:00.399Z,11.94
2023-03-29T16:55:04.037Z,11.98
2023-03-29T17:00:10.787Z,12.07
2023-03-29T17:05:14.730Z,12.25
2023-03-29T17:10:17.268Z,12.30
2023-03-29T17:15:19.882Z,12.38
2023-03-29T17:20:23.732Z,12.30
2023-03-29T17:25:26.309Z,12.26
2023-03-29T17:30:30.407Z,12.23
2023-03-29T17:35:34.816Z,12.23
2023-03-29T17:40:37.495Z,12.32
2023-03-29T17:45:40.117Z,12.33
2023-03-29T17:50:43.973Z,12.30
2023-03-29T17:55:46.748Z,12.25
2023-03-29T18:00:49.566Z,12.20
2023-03-29T18:05:54.181Z,12.15
2023-03-29T18:10:56.722Z,12.15
2023-03-29T18:15:59.734Z,12.20
2023-03-29T18:21:04.105Z,12.22
2023-03-29T18:26:08.234Z,12.23
2023-03-29T18:31:10.995Z,12.23
2023-03-29T18:36:15.422Z,12.26
2023-03-29T18:41:18.020Z,12.28
2023-03-29T18:46:20.534Z,12.28
2023-03-29T18:51:25.726Z,12.32
2023-03-29T18:56:28.632Z,12.34
2023-03-29T19:01:31.183Z,12.38
2023-03-29T19:06:35.825Z,12.38
2023-03-29T19:11:38.369Z,12.40
2023-03-29T19:16:42.293Z,12.43
2023-03-29T19:21:47.899Z,12.42
2023-03-29T19:26:51.905Z,12.36
2023-03-29T19:31:54.558Z,12.30
2023-03-29T19:37:00.200Z,12.27
2023-03-29T19:42:02.757Z,12.24
2023-03-29T19:47:05.663Z,12.22
2023-03-29T19:52:10.528Z,12.18
2023-03-29T19:57:13.050Z,12.15
2023-03-29T20:02:16.009Z,12.11
2023-03-29T20:07:19.961Z,12.05
2023-03-29T20:12:22.756Z,11.99
2023-03-29T20:17:25.581Z,11.94
2023-03-29T20:22:31.145Z,11.90
2023-03-29T20:27:34.073Z,11.86
2023-03-29T20:32:36.693Z,11.80
2023-03-29T20:37:40.692Z,11.75
2023-03-29T20:42:46.137Z,11.69
2023-03-29T20:47:57.403Z,11.63
2023-03-29T20:53:03.586Z,11.57
2023-03-29T20:58:07.768Z,11.51
2023-03-29T21:03:10.820Z,11.41
2023-03-29T21:08:18.224Z,11.32
2023-03-29T21:13:20.865Z,11.24
2023-03-29T21:18:23.535Z,11.18
2023-03-29T21:23:27.382Z,11.13
2023-03-29T21:28:29.917Z,11.05
2023-03-29T21:33:32.509Z,11.01
2023-03-29T21:38:36.570Z,10.99
2023-03-29T21:43:39.588Z,10.98
2023-03-29T21:48:42.593Z,10.92
2023-03-29T21:53:46.469Z,10.87
2023-03-29T21:58:48.947Z,10.81
2023-03-29T22:03:51.470Z,10.74
2023-03-29T22:08:55.277Z,10.72
2023-03-29T22:13:57.868Z,10.70
2023-03-29T22:19:00.393Z,10.68
2023-03-29T22:24:04.953Z,10.65
2023-03-29T22:29:07.490Z,10.60
2023-03-29T22:34:10.006Z,10.54
2023-03-29T22:39:13.864Z,10.48
2023-03-29T22:44:16.369Z,10.42
2023-03-29T22:49:18.913Z,10.36
2023-03-29T22:54:22.728Z,10.30
2023-03-29T22:59:26.854Z,10.26
2023-03-29T23:04:29.473Z,10.28
2023-03-29T23:09:33.499Z,10.25
2023-03-29T23:14:36.077Z,10.22
2023-03-29T23:19:38.791Z,10.20
2023-03-29T23:24:43.449Z,10.20
2023-03-29T23:29:46.056Z,10.18
2023-03-29T23:34:48.563Z,10.09
2023-03-29T23:39:52.380Z,10.09
2023-03-29T23:44:55.807Z,10.11
2023-03-29T23:50:01.942Z,10.06
2023-03-29T23:55:06.700Z,10.03
